Time;durP1;ratioP1;P1;durP2;ratioP2;P2;SDS_P1;SDS_P2;PMS_P1;PMS_P2;Temp;Humidity;BMP_temperature;BMP_pressure;BME280_temperature;BME280_humidity;BME280_pressure;Samples;Min_cycle;Max_cycle;Signal;HPM_P1;HPM_P2
2020/12/12 00:02:30;;;;;;;88.93;59.28;;;;;;;9.49;64.58;92651.00;4981219;28;20065;-75
2020/12/12 00:04:55;;;;;;;88.63;59.13;;;;;;;9.42;64.68;92642.78;4980548;28;22846;-76
2020/12/12 00:07:21;;;;;;;89.93;58.47;;;;;;;9.47;64.60;92645.28;4985503;28;20026;-75
2020/12/12 00:09:46;;;;;;;88.72;60.25;;;;;;;9.54;64.59;92642.16;4981373;28;20057;-75
2020/12/12 00:12:12;;;;;;;83.13;56.83;;;;;;;9.57;64.53;92639.69;4968476;28;20038;-75
2020/12/12 00:14:37;;;;;;;91.32;57.95;;;;;;;9.57;64.55;92633.66;4971528;28;20041;-76
2020/12/12 00:17:03;;;;;;;80.88;54.17;;;;;;;9.59;64.36;92639.38;4984995;28;20093;-76
2020/12/12 00:19:29;;;;;;;94.25;59.97;;;;;;;9.59;64.63;92636.72;4985051;28;20458;-76
2020/12/12 00:21:55;;;;;;;88.20;57.80;;;;;;;9.53;65.06;92630.81;4982646;28;20030;-76
2020/12/12 00:24:21;;;;;;;80.38;56.17;;;;;;;9.53;65.22;92635.31;4983887;28;20046;-76
2020/12/12 00:26:47;;;;;;;82.32;56.22;;;;;;;9.55;65.16;92627.88;4994231;28;20046;-76
2020/12/12 00:29:14;;;;;;;88.18;57.15;;;;;;;9.60;64.95;92634.88;4985273;28;20042;-76
2020/12/12 00:31:41;;;;;;;82.10;55.17;;;;;;;9.63;64.79;92624.47;4977869;28;20105;-76
2020/12/12 00:34:07;;;;;;;88.40;57.35;;;;;;;9.58;64.59;92612.22;4984745;28;20014;-76
2020/12/12 00:36:42;;;;;;;97.25;63.50;;;;;;;9.61;65.03;92623.25;4983390;28;20054;-76
2020/12/12 00:39:09;;;;;;;101.50;67.63;;;;;;;9.61;65.02;92616.09;4977314;28;20038;-76
2020/12/12 00:41:39;;;;;;;97.15;65.80;;;;;;;9.64;64.85;92614.69;4976012;28;20070;-76
2020/12/12 00:44:06;;;;;;;106.97;70.03;;;;;;;9.58;64.78;92606.16;4961224;28;20101;-77
2020/12/12 00:46:32;;;;;;;99.10;63.58;;;;;;;9.56;64.97;92608.34;4964814;28;20074;-76
2020/12/12 00:48:57;;;;;;;103.60;65.70;;;;;;;9.48;65.17;92586.16;4980437;28;20511;-76
2020/12/12 00:51:23;;;;;;;102.70;67.95;;;;;;;9.57;64.94;92604.63;4968925;28;20059;-77
2020/12/12 00:53:49;;;;;;;103.78;67.10;;;;;;;9.58;64.75;92596.38;4960324;28;20054;-76
2020/12/12 00:56:15;;;;;;;109.97;69.45;;;;;;;9.55;64.49;92591.75;4965973;28;20038;-76
2020/12/12 00:58:41;;;;;;;111.32;74.80;;;;;;;9.55;64.80;92598.88;4978754;28;20133;-77
2020/12/12 01:01:07;;;;;;;112.15;71.63;;;;;;;9.58;64.92;92595.63;4963343;28;20054;-76
2020/12/12 01:03:33;;;;;;;110.05;70.10;;;;;;;9.62;65.27;92593.16;4980108;28;20050;-76
2020/12/12 01:05:59;;;;;;;99.63;68.35;;;;;;;9.56;65.22;92587.25;4981543;28;20455;-76
2020/12/12 01:08:24;;;;;;;102.70;68.18;;;;;;;9.62;65.06;92591.28;4972804;28;20042;-76
2020/12/12 01:10:51;;;;;;;110.68;73.72;;;;;;;9.62;65.13;92587.88;4960036;28;20037;-76
2020/12/12 01:13:17;;;;;;;123.65;78.05;;;;;;;9.64;65.46;92588.31;4964485;28;20065;-76
2020/12/12 01:15:43;;;;;;;128.45;82.47;;;;;;;9.65;65.37;92584.59;4996637;28;20499;-76
2020/12/12 01:18:08;;;;;;;130.57;83.80;;;;;;;9.66;65.25;92581.66;4967180;28;20102;-76
2020/12/12 01:20:34;;;;;;;133.50;84.95;;;;;;;9.68;65.32;92578.69;4965299;28;20134;-76
2020/12/12 01:22:59;;;;;;;123.82;81.80;;;;;;;9.66;65.54;92576.38;4961352;28;20038;-76
2020/12/12 01:25:25;;;;;;;128.38;83.22;;;;;;;9.68;65.72;92563.66;4963163;28;20023;-76
2020/12/12 01:27:50;;;;;;;116.18;77.25;;;;;;;9.62;66.02;92564.13;4981113;28;20483;-76
2020/12/12 01:30:16;;;;;;;121.32;74.38;;;;;;;9.58;66.04;92561.31;4966113;28;20732;-76
2020/12/12 01:32:41;;;;;;;121.80;80.13;;;;;;;9.64;65.88;92568.00;4963195;28;20065;-76
2020/12/12 01:35:07;;;;;;;120.00;77.82;;;;;;;9.55;65.92;92549.56;4961291;28;20092;-76
2020/12/12 01:37:33;;;;;;;109.55;75.30;;;;;;;9.52;66.21;92558.09;4966969;28;20030;-76
2020/12/12 01:39:58;;;;;;;118.18;76.95;;;;;;;9.53;66.59;92554.34;4962691;28;20050;-76
2020/12/12 01:42:24;;;;;;;123.40;76.40;;;;;;;9.58;66.60;92553.41;4960555;28;20573;-76
2020/12/12 01:44:55;;;;;;;120.57;73.65;;;;;;;9.52;66.61;92544.91;4971643;28;20050;-76
2020/12/12 01:47:21;;;;;;;115.10;74.25;;;;;;;9.49;66.92;92542.88;4974501;28;20411;-76
2020/12/12 01:49:49;;;;;;;118.75;78.78;;;;;;;9.54;66.80;92541.94;4963153;28;20051;-76
2020/12/12 01:52:15;;;;;;;114.65;73.35;;;;;;;9.54;66.85;92536.66;4964608;28;20033;-76
2020/12/12 01:54:45;;;;;;;109.97;69.85;;;;;;;9.48;67.21;92543.97;4963969;28;20035;-76
2020/12/12 01:57:13;;;;;;;104.13;69.97;;;;;;;9.55;67.56;92544.28;4975048;28;20034;-77
2020/12/12 01:59:39;;;;;;;111.35;67.00;;;;;;;9.49;67.40;92534.19;4961215;28;20047;-76
2020/12/12 02:02:06;;;;;;;85.35;53.08;;;;;;;9.50;67.61;92530.47;4963457;28;20410;-77
2020/12/12 02:04:35;;;;;;;82.05;55.83;;;;;;;9.53;68.04;92535.13;4963892;28;20481;-76
2020/12/12 02:07:00;;;;;;;53.92;38.13;;;;;;;9.55;68.75;92532.94;4963285;28;20066;-76
2020/12/12 02:09:26;;;;;;;36.25;25.65;;;;;;;9.48;70.02;92527.38;4961217;28;20066;-76
2020/12/12 02:11:52;;;;;;;23.85;18.35;;;;;;;9.41;71.19;92522.59;4972683;28;20043;-76
2020/12/12 02:14:17;;;;;;;22.25;17.70;;;;;;;9.45;71.65;92523.50;4976308;28;20085;-76
2020/12/12 02:17:02;;;;;;;24.08;18.35;;;;;;;9.47;71.94;92520.56;4959091;28;20468;-76
2020/12/12 02:19:27;;;;;;;23.58;17.17;;;;;;;9.45;72.09;92522.72;4964126;28;20023;-76
2020/12/12 02:21:57;;;;;;;23.33;17.50;;;;;;;9.51;72.09;92517.00;4979841;28;20049;-76
2020/12/12 02:24:29;;;;;;;22.98;17.85;;;;;;;9.41;72.53;92506.75;4967209;28;20039;-76
2020/12/12 02:26:57;;;;;;;23.95;18.27;;;;;;;9.38;72.49;92498.72;4970966;28;20761;-76
2020/12/12 02:29:27;;;;;;;24.92;16.60;;;;;;;9.46;72.61;92503.19;4970861;28;20039;-76
2020/12/12 02:31:52;;;;;;;25.25;15.75;;;;;;;9.35;72.93;92497.44;4962091;28;20057;-76
2020/12/12 02:34:18;;;;;;;23.90;16.77;;;;;;;9.31;73.05;92493.13;4963118;28;20027;-76
2020/12/12 02:36:43;;;;;;;21.92;16.50;;;;;;;9.31;73.34;92501.03;4962571;28;20534;-76
2020/12/12 02:39:11;;;;;;;17.73;15.13;;;;;;;9.27;73.52;92497.47;4964650;28;20031;-76
2020/12/12 02:41:36;;;;;;;19.35;14.30;;;;;;;9.26;73.37;92493.28;4963391;28;20038;-76
2020/12/12 02:44:02;;;;;;;23.38;15.00;;;;;;;9.19;73.65;92493.00;4978358;28;20442;-76
2020/12/12 02:46:28;;;;;;;19.77;13.80;;;;;;;9.18;73.68;92496.69;4981031;28;20410;-76
2020/12/12 02:48:54;;;;;;;16.00;12.50;;;;;;;9.20;73.57;92483.97;4961712;28;20716;-76
2020/12/12 02:51:20;;;;;;;18.95;13.77;;;;;;;9.23;73.69;92488.63;4974741;28;20495;-76
2020/12/12 02:53:45;;;;;;;16.55;12.48;;;;;;;9.28;73.39;92486.63;4980449;28;20055;-76
2020/12/12 02:56:16;;;;;;;15.10;11.63;;;;;;;9.28;73.23;92486.63;4980688;28;20089;-76
2020/12/12 02:58:42;;;;;;;17.27;11.85;;;;;;;9.29;73.39;92487.38;4981101;28;20030;-76
2020/12/12 03:01:08;;;;;;;13.35;11.55;;;;;;;9.24;73.57;92490.16;4985697;28;20480;-75
2020/12/12 03:03:34;;;;;;;14.30;10.68;;;;;;;9.21;73.45;92481.03;4981603;28;20056;-76
2020/12/12 03:06:00;;;;;;;15.73;12.73;;;;;;;9.10;73.54;92459.50;4984626;28;20049;-76
2020/12/12 03:08:26;;;;;;;13.63;10.65;;;;;;;9.16;73.84;92478.56;4985715;28;20096;-75
2020/12/12 03:10:52;;;;;;;15.77;11.40;;;;;;;9.15;73.88;92471.72;4984591;28;20034;-76
2020/12/12 03:13:17;;;;;;;14.93;11.02;;;;;;;9.10;74.00;92479.78;4985782;28;20034;-75
2020/12/12 03:15:42;;;;;;;12.63;9.73;;;;;;;9.05;73.81;92469.41;4985792;28;20034;-76
2020/12/12 03:18:08;;;;;;;18.27;11.25;;;;;;;9.00;74.08;92470.34;4983585;28;20086;-76
2020/12/12 03:20:34;;;;;;;11.38;9.05;;;;;;;8.93;74.08;92462.13;4977641;28;20403;-75
2020/12/12 03:22:59;;;;;;;9.75;8.13;;;;;;;8.91;73.65;92472.19;4966983;28;20038;-76
2020/12/12 03:25:24;;;;;;;6.88;5.85;;;;;;;9.01;73.30;92466.63;4982956;28;20096;-76
2020/12/12 03:27:50;;;;;;;8.45;5.30;;;;;;;8.94;72.59;92462.91;4968024;28;20089;-76
2020/12/12 03:30:16;;;;;;;4.47;3.63;;;;;;;8.91;72.49;92461.66;4965094;28;20039;-76
2020/12/12 03:32:41;;;;;;;3.55;3.25;;;;;;;8.87;72.21;92450.19;4959241;28;20033;-76
2020/12/12 03:35:06;;;;;;;4.47;3.38;;;;;;;8.90;72.08;92470.66;4964506;28;20077;-76
2020/12/12 03:37:32;;;;;;;4.35;3.80;;;;;;;8.81;71.96;92451.44;4966251;28;20026;-76
2020/12/12 03:39:57;;;;;;;3.63;3.33;;;;;;;8.75;71.84;92450.03;4982918;28;20517;-76
2020/12/12 03:42:23;;;;;;;5.68;4.32;;;;;;;8.70;72.31;92458.09;4977641;28;20034;-76
2020/12/12 03:44:48;;;;;;;5.82;5.00;;;;;;;8.76;72.57;92462.13;4968985;28;20042;-76
2020/12/12 03:47:14;;;;;;;8.73;6.25;;;;;;;8.75;73.20;92465.84;4963205;28;20491;-76
2020/12/12 03:49:39;;;;;;;13.18;8.98;;;;;;;8.63;74.03;92449.88;4965693;28;20113;-76
2020/12/12 03:52:05;;;;;;;9.52;7.60;;;;;;;8.62;74.56;92458.84;4987584;28;20026;-76
2020/12/12 03:54:31;;;;;;;8.30;7.13;;;;;;;8.58;74.61;92452.66;4964420;28;20057;-75
2020/12/12 03:56:56;;;;;;;9.98;7.25;;;;;;;8.72;74.12;92457.78;4974796;28;20057;-75
2020/12/12 03:59:22;;;;;;;7.72;6.63;;;;;;;8.73;73.69;92457.47;4978627;28;20039;-76
2020/12/12 04:01:47;;;;;;;6.78;6.07;;;;;;;8.70;73.72;92448.31;4963356;28;20041;-76
2020/12/12 04:04:13;;;;;;;5.40;4.90;;;;;;;8.68;72.97;92449.72;4963312;28;20105;-75
2020/12/12 04:06:39;;;;;;;5.40;4.88;;;;;;;8.67;72.63;92441.06;4981433;28;20076;-75
2020/12/12 04:09:04;;;;;;;6.78;5.63;;;;;;;8.64;72.83;92440.91;4982676;28;20487;-76
2020/12/12 04:11:30;;;;;;;6.13;4.57;;;;;;;8.63;72.42;92434.09;4984560;28;20060;-75
2020/12/12 04:13:55;;;;;;;6.95;5.82;;;;;;;8.67;72.76;92445.53;4982111;28;20038;-75
2020/12/12 04:16:21;;;;;;;7.38;5.22;;;;;;;8.67;72.95;92441.06;4984481;28;20041;-76
2020/12/12 04:18:46;;;;;;;8.02;4.85;;;;;;;8.69;72.46;92433.63;4984056;28;20053;-76
2020/12/12 04:21:12;;;;;;;8.52;4.47;;;;;;;8.69;72.19;92428.38;4967796;28;20616;-76
2020/12/12 04:23:37;;;;;;;4.45;3.88;;;;;;;8.65;72.11;92430.03;4966010;28;20047;-77
2020/12/12 04:26:03;;;;;;;4.25;3.85;;;;;;;8.62;71.92;92428.03;4964898;28;20094;-76
2020/12/12 04:28:30;;;;;;;4.32;3.80;;;;;;;8.65;72.10;92432.69;4965730;28;20089;-76
2020/12/12 04:30:55;;;;;;;4.32;3.47;;;;;;;8.68;71.78;92421.53;4982213;28;20507;-76
2020/12/12 04:33:21;;;;;;;4.25;3.80;;;;;;;8.73;71.77;92428.50;4981488;28;20038;-76
2020/12/12 04:35:47;;;;;;;3.40;3.08;;;;;;;8.67;71.43;92427.88;4983617;28;20038;-75
2020/12/12 04:38:12;;;;;;;3.03;2.72;;;;;;;8.69;71.32;92423.09;4982971;28;20053;-75
2020/12/12 04:40:38;;;;;;;3.72;2.40;;;;;;;8.62;71.38;92417.50;4980779;28;20030;-76
2020/12/12 04:43:03;;;;;;;4.05;3.17;;;;;;;8.52;71.38;92414.41;4985305;28;20065;-75
2020/12/12 04:45:30;;;;;;;4.32;2.00;;;;;;;8.57;71.29;92430.03;4983160;28;20049;-77
2020/12/12 04:47:56;;;;;;;1.90;1.77;;;;;;;8.58;70.72;92421.06;4980050;28;20112;-75
2020/12/12 04:50:28;;;;;;;2.00;1.80;;;;;;;8.55;70.52;92417.19;4982802;28;20499;-75
2020/12/12 04:52:57;;;;;;;2.47;2.28;;;;;;;8.57;71.07;92424.78;4985902;28;20022;-75
2020/12/12 04:55:25;;;;;;;4.00;2.63;;;;;;;8.47;70.66;92414.53;4982906;28;20018;-75
2020/12/12 04:57:53;;;;;;;3.47;2.38;;;;;;;8.56;70.35;92417.97;4965657;28;20098;-75
2020/12/12 05:00:19;;;;;;;5.70;2.45;;;;;;;8.55;70.26;92416.44;4976187;28;20042;-76
2020/12/12 05:02:46;;;;;;;22.77;11.63;;;;;;;8.54;70.29;92420.13;4981267;28;20387;-75
2020/12/12 05:05:11;;;;;;;29.65;16.40;;;;;;;8.59;69.91;92417.34;4982256;28;20046;-76
2020/12/12 05:07:37;;;;;;;36.20;19.50;;;;;;;8.63;70.00;92426.19;4981597;28;20514;-75
2020/12/12 05:10:04;;;;;;;32.63;19.77;;;;;;;8.69;70.19;92411.78;4967431;28;20514;-75
2020/12/12 05:12:33;;;;;;;18.00;12.05;;;;;;;8.69;70.02;92401.25;4960663;28;20395;-75
2020/12/12 05:14:58;;;;;;;17.77;12.52;;;;;;;8.62;69.96;92400.94;4972959;28;20113;-76
2020/12/12 05:17:24;;;;;;;24.52;14.90;;;;;;;8.66;70.21;92401.84;4983144;28;20157;-75
2020/12/12 05:19:50;;;;;;;15.63;10.15;;;;;;;8.70;70.20;92402.78;4980368;28;20026;-76
2020/12/12 05:22:16;;;;;;;11.38;9.05;;;;;;;8.72;69.89;92394.56;4980965;28;20471;-75
2020/12/12 05:24:42;;;;;;;7.30;6.53;;;;;;;8.75;69.60;92399.25;4981919;28;20130;-76
2020/12/12 05:27:08;;;;;;;4.75;4.13;;;;;;;8.80;69.40;92407.75;4982255;28;20125;-76
2020/12/12 05:29:34;;;;;;;12.25;9.15;;;;;;;8.76;69.45;92392.88;4980273;28;20031;-75
2020/12/12 05:31:59;;;;;;;11.98;9.85;;;;;;;8.85;69.54;92404.94;4979224;28;20116;-76
2020/12/12 05:34:26;;;;;;;8.65;7.03;;;;;;;8.84;69.36;92403.41;4984513;28;20109;-76
2020/12/12 05:36:52;;;;;;;9.30;7.32;;;;;;;8.85;69.54;92393.63;4963542;28;20134;-77
2020/12/12 05:39:18;;;;;;;3.42;3.13;;;;;;;8.84;69.13;92397.38;4962717;28;20051;-76
2020/12/12 05:41:45;;;;;;;4.18;2.20;;;;;;;8.92;68.92;92396.59;4960470;28;20061;-76
2020/12/12 05:44:11;;;;;;;3.90;3.28;;;;;;;8.95;68.83;92395.94;4969013;28;20034;-76
2020/12/12 05:46:38;;;;;;;3.10;2.80;;;;;;;9.03;68.53;92400.44;4980838;28;20585;-76
2020/12/12 05:49:05;;;;;;;3.33;2.75;;;;;;;9.09;68.12;92389.41;4982921;28;20528;-76
2020/12/12 05:51:31;;;;;;;6.88;4.63;;;;;;;9.09;68.06;92392.06;4966602;28;20047;-76
2020/12/12 05:53:58;;;;;;;5.97;4.10;;;;;;;9.11;67.99;92389.88;4959711;28;20047;-76
2020/12/12 05:56:24;;;;;;;6.70;4.35;;;;;;;9.09;67.92;92388.63;4969380;28;20043;-76
2020/12/12 05:58:52;;;;;;;5.45;3.97;;;;;;;9.12;67.92;92395.94;4976281;28;20030;-76
2020/12/12 06:01:22;;;;;;;11.20;5.82;;;;;;;9.13;67.96;92394.84;4986182;28;20026;-76
2020/12/12 06:04:09;;;;;;;3.95;2.92;;;;;;;9.18;68.07;92392.06;4979426;28;20510;-76
2020/12/12 06:06:43;;;;;;;3.53;3.05;;;;;;;9.10;67.95;92390.97;4970039;28;20510;-76
2020/12/12 06:09:10;;;;;;;3.85;3.38;;;;;;;9.17;68.03;92389.72;4963178;28;20043;-76
2020/12/12 06:11:42;;;;;;;4.85;3.92;;;;;;;9.21;67.84;92393.28;4968822;28;20562;-76
2020/12/12 06:14:07;;;;;;;5.93;4.30;;;;;;;9.23;67.66;92388.47;4979257;28;20042;-76
2020/12/12 06:16:35;;;;;;;6.18;5.53;;;;;;;9.26;67.21;92387.84;4981148;28;20034;-76
2020/12/12 06:19:12;;;;;;;9.23;6.10;;;;;;;9.23;67.30;92381.34;4992735;28;20575;-76
2020/12/12 06:21:42;;;;;;;9.63;6.22;;;;;;;9.23;67.47;92377.94;4979092;28;20054;-76
2020/12/12 06:24:10;;;;;;;8.80;6.72;;;;;;;9.22;67.40;92374.53;4980118;28;20062;-76
2020/12/12 06:26:36;;;;;;;9.95;8.18;;;;;;;9.34;67.15;92384.41;4979928;28;20050;-76
2020/12/12 06:29:01;;;;;;;10.00;5.80;;;;;;;9.33;67.24;92388.16;4981428;28;20093;-75
2020/12/12 06:31:28;;;;;;;5.68;3.97;;;;;;;9.30;67.16;92388.75;4980918;28;20027;-76
2020/12/12 06:33:54;;;;;;;4.80;3.92;;;;;;;9.35;67.19;92378.03;4984019;28;20049;-76
2020/12/12 06:36:30;;;;;;;4.57;4.00;;;;;;;9.34;67.01;92377.28;4986106;28;20125;-76
2020/12/12 06:39:15;;;;;;;6.03;4.65;;;;;;;9.36;67.18;92377.75;4982929;28;20129;-76
2020/12/12 06:41:41;;;;;;;6.10;5.50;;;;;;;9.36;67.04;92376.97;5000542;28;20077;-75
2020/12/12 06:44:06;;;;;;;8.85;4.65;;;;;;;9.34;67.17;92379.13;4983968;28;20519;-76
2020/12/12 06:46:53;;;;;;;7.05;5.93;;;;;;;9.38;67.02;92380.81;4985756;28;20026;-76
2020/12/12 06:49:18;;;;;;;8.35;6.30;;;;;;;9.37;67.12;92383.78;4984798;28;20054;-76
2020/12/12 06:51:44;;;;;;;7.20;5.40;;;;;;;9.41;66.91;92374.16;4986440;28;20105;-76
2020/12/12 06:54:10;;;;;;;18.23;7.72;;;;;;;9.43;67.38;92369.34;4984131;28;20549;-76
2020/12/12 06:56:35;;;;;;;6.60;5.75;;;;;;;9.39;67.13;92377.09;4984930;28;20175;-75
2020/12/12 06:59:36;;;;;;;10.68;7.95;;;;;;;9.40;67.23;92373.38;4997344;28;20120;-76
2020/12/12 07:02:04;;;;;;;10.50;7.32;;;;;;;9.43;67.36;92377.28;4983907;28;20050;-76
2020/12/12 07:04:32;;;;;;;8.20;6.90;;;;;;;9.42;67.20;92370.44;4987675;28;20032;-75
2020/12/12 07:07:04;;;;;;;7.75;6.15;;;;;;;9.49;67.04;92375.97;4985877;28;20439;-76
2020/12/12 07:09:30;;;;;;;6.18;5.57;;;;;;;9.55;67.35;92386.06;4983802;28;20125;-76
2020/12/12 07:11:56;;;;;;;5.82;5.20;;;;;;;9.57;67.08;92373.34;4980654;28;20124;-76
2020/12/12 07:14:22;;;;;;;6.30;5.00;;;;;;;9.61;66.94;92373.47;4986506;28;20077;-76
2020/12/12 07:16:55;;;;;;;8.15;6.60;;;;;;;9.57;66.67;92370.69;4983047;28;20649;-76
2020/12/12 07:19:40;;;;;;;5.78;4.40;;;;;;;9.63;66.54;92373.91;4987529;28;20022;-76
2020/12/12 07:22:10;;;;;;;5.45;4.53;;;;;;;9.51;66.68;92361.41;4982955;28;20537;-76
2020/12/12 07:24:36;;;;;;;6.10;5.10;;;;;;;9.63;66.62;92373.16;4968770;28;20062;-76
2020/12/12 07:27:04;;;;;;;6.93;5.00;;;;;;;9.67;67.08;92377.50;4963013;28;20042;-76
2020/12/12 07:29:30;;;;;;;6.93;5.65;;;;;;;9.70;67.18;92371.56;4965853;28;20042;-76
2020/12/12 07:31:57;;;;;;;7.72;5.75;;;;;;;9.72;66.75;92364.13;4963314;28;20138;-76
2020/12/12 07:34:24;;;;;;;7.15;5.97;;;;;;;9.74;66.75;92366.41;4966343;28;20027;-76
2020/12/12 07:37:02;;;;;;;8.80;6.70;;;;;;;9.73;67.11;92368.28;4965760;28;20043;-76
2020/12/12 07:39:48;;;;;;;7.07;5.95;;;;;;;9.80;67.04;92365.16;4963114;28;20046;-76
2020/12/12 07:42:13;;;;;;;;;;;;;;;9.84;66.25;92361.56;4974515;28;20503;-77
2020/12/12 07:44:52;;;;;;;10.10;6.72;;;;;;;9.88;66.51;92367.75;4984636;28;19910;-76
2020/12/12 07:47:17;;;;;;;10.13;6.85;;;;;;;9.85;66.60;92354.44;4978289;28;20503;-76
2020/12/12 07:49:43;;;;;;;9.20;6.30;;;;;;;9.89;66.46;92353.47;4965529;28;20047;-76
2020/12/12 07:52:11;;;;;;;8.23;6.22;;;;;;;10.02;66.31;92366.78;4965560;28;20114;-76
2020/12/12 07:54:56;;;;;;;8.98;7.03;;;;;;;10.07;66.39;92359.41;4964440;28;20122;-76
2020/12/12 07:57:22;;;;;;;9.77;7.28;;;;;;;10.11;66.42;92364.84;4954848;28;20082;-76
2020/12/12 07:59:47;;;;;;;10.13;6.75;;;;;;;10.16;66.23;92368.13;4975102;28;20101;-77
2020/12/12 08:02:14;;;;;;;10.98;7.13;;;;;;;10.15;66.18;92360.47;4984990;28;20407;-77
2020/12/12 08:04:40;;;;;;;11.32;7.72;;;;;;;10.18;65.84;92362.50;4982157;28;20080;-77
2020/12/12 08:07:29;;;;;;;12.40;7.85;;;;;;;10.18;66.17;92359.84;4988261;28;20022;-77
2020/12/12 08:09:55;;;;;;;20.67;13.57;;;;;;;10.12;66.27;92351.31;4962553;28;20054;-77
2020/12/12 08:12:29;;;;;;;20.67;14.70;;;;;;;10.17;66.23;92356.44;4963123;28;20409;-77
2020/12/12 08:14:55;;;;;;;22.35;16.20;;;;;;;10.24;65.54;92353.31;4964764;28;20053;-78
2020/12/12 08:17:25;;;;;;;135.98;80.28;;;;;;;10.19;66.07;92350.84;4971026;28;20096;-78
2020/12/12 08:19:51;;;;;;;15.85;9.48;;;;;;;10.19;65.69;92351.63;4980231;28;20026;-77
2020/12/12 08:22:20;;;;;;;14.00;9.98;;;;;;;10.31;65.74;92364.13;4966644;28;20030;-77
2020/12/12 08:24:47;;;;;;;10.93;8.48;;;;;;;10.34;65.86;92368.75;4967975;28;20035;-77
2020/12/12 08:27:20;;;;;;;11.70;7.70;;;;;;;10.34;66.23;92361.63;4974968;28;20105;-77
2020/12/12 08:29:52;;;;;;;6.97;6.20;;;;;;;10.39;65.54;92360.66;4978851;28;20077;-78
2020/12/12 08:32:40;;;;;;;11.40;6.35;;;;;;;10.42;64.22;92365.28;4979747;28;20997;-78
2020/12/12 08:35:06;;;;;;;9.20;5.90;;;;;;;10.40;63.91;92368.25;4980984;28;20085;-78
2020/12/12 08:37:32;;;;;;;9.43;6.18;;;;;;;10.41;63.91;92358.44;4984287;28;20029;-77
2020/12/12 08:39:58;;;;;;;11.15;8.55;;;;;;;10.37;64.29;92357.56;4982281;28;20373;-77
2020/12/12 08:42:23;;;;;;;9.02;7.35;;;;;;;10.51;64.54;92365.22;4979006;28;20044;-77
2020/12/12 08:44:49;;;;;;;14.88;8.25;;;;;;;10.56;64.71;92360.50;4978459;28;20039;-78
2020/12/12 08:47:14;;;;;;;15.95;9.43;;;;;;;10.44;65.27;92341.97;4979759;28;20092;-78
2020/12/12 08:49:40;;;;;;;13.93;10.30;;;;;;;10.59;65.92;92359.13;4977740;28;20133;-78
2020/12/12 08:52:05;;;;;;;10.88;9.35;;;;;;;10.55;66.06;92353.72;4982601;28;20761;-78
2020/12/12 08:54:31;;;;;;;16.50;10.00;;;;;;;10.50;65.67;92351.25;4962297;28;20061;-78
2020/12/12 08:57:09;;;;;;;7.93;7.13;;;;;;;10.51;65.56;92363.34;4971238;28;20728;-78
2020/12/12 08:59:34;;;;;;;6.10;5.50;;;;;;;10.43;65.09;92348.34;4980208;28;20182;-77
2020/12/12 09:02:00;;;;;;;13.45;7.88;;;;;;;10.46;65.38;92360.16;4979294;28;20956;-77
2020/12/12 09:04:25;;;;;;;13.02;6.95;;;;;;;10.47;65.38;92361.69;4980830;28;20068;-77
2020/12/12 09:06:51;;;;;;;13.18;7.60;;;;;;;10.52;64.93;92362.25;4962535;28;20071;-77
2020/12/12 09:09:29;;;;;;;16.40;9.20;;;;;;;10.56;66.15;92354.47;4965418;28;20043;-78
2020/12/12 09:12:00;;;;;;;14.25;8.68;;;;;;;10.56;65.94;92355.22;4958918;28;20047;-78
2020/12/12 09:14:28;;;;;;;23.25;11.30;;;;;;;10.64;66.00;92345.72;4958332;28;20035;-78
2020/12/12 09:16:55;;;;;;;41.50;19.73;;;;;;;10.66;66.09;92352.19;4960593;28;20037;-77
2020/12/12 09:19:22;;;;;;;29.05;16.48;;;;;;;10.65;65.65;92345.38;4979882;28;20033;-78
2020/12/12 09:21:48;;;;;;;16.75;10.35;;;;;;;10.68;65.65;92339.47;4980198;28;20038;-77
2020/12/12 09:24:15;;;;;;;29.58;15.90;;;;;;;10.76;65.34;92346.53;4978222;28;20034;-77
2020/12/12 09:26:40;;;;;;;19.77;11.00;;;;;;;10.75;65.20;92336.31;4975967;28;20043;-77
2020/12/12 09:29:06;;;;;;;20.20;11.35;;;;;;;10.64;64.96;92335.91;4978410;28;20042;-78
2020/12/12 09:31:31;;;;;;;13.35;9.43;;;;;;;10.66;65.00;92328.44;4979721;28;20026;-77
2020/12/12 09:33:57;;;;;;;23.20;14.43;;;;;;;10.64;65.20;92329.84;4977901;28;20038;-77
2020/12/12 09:36:23;;;;;;;22.27;12.63;;;;;;;10.62;65.58;92337.31;4976773;28;20046;-77
2020/12/12 09:38:49;;;;;;;23.60;13.93;;;;;;;10.58;65.31;92323.22;4979241;28;20046;-77
2020/12/12 09:41:15;;;;;;;10.63;7.13;;;;;;;10.63;65.47;92334.38;4994235;28;20053;-77
2020/12/12 09:43:41;;;;;;;7.45;6.75;;;;;;;10.62;64.79;92327.53;4976482;28;20125;-78
2020/12/12 09:46:07;;;;;;;12.00;8.85;;;;;;;10.68;65.20;92328.88;4979297;28;22094;-77
2020/12/12 09:48:37;;;;;;;10.25;8.10;;;;;;;10.69;65.65;92316.44;4978425;28;20105;-77
2020/12/12 09:51:04;;;;;;;14.07;7.93;;;;;;;10.73;65.56;92322.63;4975914;28;20050;-78
2020/12/12 09:53:29;;;;;;;29.30;11.60;;;;;;;10.71;65.09;92312.38;4980110;28;20105;-77
2020/12/12 09:55:56;;;;;;;42.80;15.20;;;;;;;10.86;64.73;92326.84;4977120;28;20030;-78
2020/12/12 09:58:22;;;;;;;43.28;16.70;;;;;;;10.81;63.48;92319.91;4980133;28;20057;-77
2020/12/12 10:00:48;;;;;;;27.90;13.30;;;;;;;10.81;63.43;92321.78;4978977;28;20038;-77
2020/12/12 10:03:13;;;;;;;24.98;11.60;;;;;;;10.83;63.65;92320.38;4978653;28;20525;-78
2020/12/12 10:05:39;;;;;;;24.15;10.85;;;;;;;10.83;63.56;92327.50;4979657;28;20089;-78
2020/12/12 10:08:05;;;;;;;21.55;11.95;;;;;;;10.74;63.23;92317.03;4981809;28;20042;-77
2020/12/12 10:10:32;;;;;;;22.33;12.35;;;;;;;10.73;63.51;92323.41;4982360;28;20033;-77
2020/12/12 10:12:57;;;;;;;29.05;13.05;;;;;;;10.73;63.88;92325.28;4979944;28;20050;-77
2020/12/12 10:15:24;;;;;;;14.70;9.88;;;;;;;10.75;63.79;92321.19;4982413;28;20080;-77
2020/12/12 10:17:50;;;;;;;9.10;7.63;;;;;;;10.74;63.48;92324.97;4980002;28;20121;-77
2020/12/12 10:20:16;;;;;;;7.13;5.82;;;;;;;10.56;63.07;92309.56;4982488;28;20049;-77
2020/12/12 10:22:42;;;;;;;166.60;80.90;;;;;;;10.58;63.71;92321.34;4981509;28;20042;-77
2020/12/12 10:25:08;;;;;;;21.52;12.48;;;;;;;10.49;64.68;92310.09;4984941;28;20681;-76
2020/12/12 10:27:34;;;;;;;15.32;9.73;;;;;;;10.61;64.50;92314.63;4983857;28;20124;-75
2020/12/12 10:30:00;;;;;;;25.52;14.43;;;;;;;10.63;64.75;92310.59;4979313;28;20601;-75
2020/12/12 10:32:25;;;;;;;47.60;23.33;;;;;;;10.68;64.50;92315.69;4995199;28;20050;-76
2020/12/12 10:34:51;;;;;;;21.23;11.63;;;;;;;10.72;64.47;92313.16;4978656;28;20037;-77
2020/12/12 10:37:17;;;;;;;13.25;8.35;;;;;;;10.75;64.26;92304.59;4982807;28;20468;-77
2020/12/12 10:40:03;;;;;;;12.43;8.63;;;;;;;10.81;64.18;92301.41;4979843;28;20038;-78
2020/12/12 10:42:31;;;;;;;15.07;8.13;;;;;;;10.87;63.78;92307.25;4979912;28;20042;-78
2020/12/12 10:44:57;;;;;;;13.35;8.45;;;;;;;10.91;63.26;92304.72;4977188;28;20354;-77
2020/12/12 10:47:22;;;;;;;8.48;6.82;;;;;;;10.88;62.52;92302.75;4992707;28;20050;-78
2020/12/12 10:49:48;;;;;;;7.10;5.53;;;;;;;10.95;62.97;92302.97;4979238;28;20050;-78
2020/12/12 10:52:13;;;;;;;9.13;6.63;;;;;;;10.95;62.79;92297.69;4984027;28;20049;-78
2020/12/12 10:54:40;;;;;;;8.15;7.07;;;;;;;10.88;62.83;92292.97;4981308;28;20041;-77
2020/12/12 10:57:05;;;;;;;7.47;5.97;;;;;;;10.89;63.10;92294.50;4979992;28;20034;-77
2020/12/12 10:59:31;;;;;;;8.45;6.22;;;;;;;10.90;63.43;92295.28;4982029;28;20639;-78
2020/12/12 11:01:57;;;;;;;7.80;6.38;;;;;;;10.95;63.28;92298.47;4978438;28;20050;-77
2020/12/12 11:04:23;;;;;;;7.30;4.68;;;;;;;10.94;62.97;92298.81;4982623;28;20076;-77
2020/12/12 11:06:50;;;;;;;8.52;5.93;;;;;;;10.92;62.15;92303.63;4982277;28;20073;-78
2020/12/12 11:09:15;;;;;;;8.35;6.13;;;;;;;10.92;62.83;92301.00;4980475;28;20038;-78
2020/12/12 11:11:41;;;;;;;14.05;5.90;;;;;;;10.99;62.98;92306.53;4982297;28;20054;-77
2020/12/12 11:14:08;;;;;;;16.88;7.50;;;;;;;10.96;63.00;92305.31;4978930;28;20050;-77
2020/12/12 11:16:34;;;;;;;8.55;6.82;;;;;;;11.00;63.06;92298.25;4986121;28;20030;-78
2020/12/12 11:18:59;;;;;;;15.45;6.90;;;;;;;11.04;62.26;92307.09;4981036;28;20042;-78
2020/12/12 11:21:25;;;;;;;16.98;8.55;;;;;;;11.06;61.86;92304.13;4980327;28;20041;-77
2020/12/12 11:23:51;;;;;;;8.48;4.80;;;;;;;11.04;61.61;92306.34;4979261;28;20085;-78
2020/12/12 11:26:17;;;;;;;14.25;7.53;;;;;;;11.04;61.72;92301.81;4981846;28;20069;-78
2020/12/12 11:28:45;;;;;;;17.42;7.40;;;;;;;11.09;61.72;92303.47;4978512;28;20037;-78
2020/12/12 11:31:22;;;;;;;10.50;6.50;;;;;;;11.06;61.93;92293.53;4984775;28;20141;-78